Time;durP1;ratioP1;P1;durP2;ratioP2;P2;SDS_P1;SDS_P2;PMS_P1;PMS_P2;Temp;Humidity;BMP_temperature;BMP_pressure;BME280_temperature;BME280_humidity;BME280_pressure;Samples;Min_cycle;Max_cycle;Signal;HPM_P1;HPM_P2
2020/12/07 00:00:42;;;;;;;25.02;9.35;;;-5.40;89.50;;;;;;5038429;28;20107;-77
2020/12/07 00:03:08;;;;;;;19.40;9.05;;;-5.40;89.30;;;;;;5038278;28;20030;-77
2020/12/07 00:05:35;;;;;;;30.35;9.35;;;-5.40;89.30;;;;;;5038330;28;20030;-77
2020/12/07 00:08:01;;;;;;;18.20;8.48;;;-5.40;89.30;;;;;;5038322;28;20021;-77
2020/12/07 00:10:27;;;;;;;22.05;9.80;;;-5.40;89.30;;;;;;5038462;28;20025;-77
2020/12/07 00:12:52;;;;;;;28.17;10.30;;;-5.50;89.30;;;;;;5038383;28;20030;-77
2020/12/07 00:15:18;;;;;;;19.27;8.48;;;-5.50;89.20;;;;;;5038453;28;20028;-77
2020/12/07 00:17:44;;;;;;;24.25;10.27;;;-5.50;89.30;;;;;;5037070;28;20036;-78
2020/12/07 00:20:10;;;;;;;22.83;9.35;;;-5.50;89.50;;;;;;5035141;28;20028;-78
2020/12/07 00:22:36;;;;;;;23.38;9.98;;;-5.50;89.60;;;;;;5035449;28;20029;-78
2020/12/07 00:25:04;;;;;;;19.13;8.93;;;-5.50;89.70;;;;;;5034996;28;20519;-78
2020/12/07 00:27:32;;;;;;;26.38;9.88;;;-5.50;89.60;;;;;;5035227;28;20096;-78
2020/12/07 00:29:59;;;;;;;21.85;10.43;;;-5.50;89.60;;;;;;5034956;28;20052;-78
2020/12/07 00:32:25;;;;;;;26.42;9.63;;;-5.50;89.50;;;;;;5035165;28;20375;-77
2020/12/07 00:34:52;;;;;;;27.65;9.32;;;-5.50;89.50;;;;;;5035499;28;20426;-78
2020/12/07 00:37:19;;;;;;;15.82;7.88;;;-5.50;89.60;;;;;;5017484;28;20368;-77
2020/12/07 00:39:44;;;;;;;19.08;8.77;;;-5.50;89.60;;;;;;5035615;28;20029;-78
2020/12/07 00:42:10;;;;;;;19.83;9.23;;;-5.50;89.60;;;;;;5034910;28;20022;-77
2020/12/07 00:44:37;;;;;;;21.20;8.38;;;-5.60;89.40;;;;;;5034809;28;20029;-77
2020/12/07 00:47:04;;;;;;;17.77;8.43;;;-5.60;89.30;;;;;;5034795;28;20021;-77
2020/12/07 00:49:30;;;;;;;27.10;10.60;;;-5.60;89.40;;;;;;5034831;28;20026;-77
2020/12/07 00:51:56;;;;;;;20.50;10.23;;;-5.60;89.60;;;;;;5034933;28;20028;-77
2020/12/07 00:54:22;;;;;;;19.08;7.90;;;-5.60;89.50;;;;;;5034735;28;20104;-77
2020/12/07 00:56:55;;;;;;;16.95;8.55;;;-5.60;89.70;;;;;;5034733;28;20028;-77
2020/12/07 00:59:22;;;;;;;23.42;10.00;;;-5.60;89.60;;;;;;5034709;28;20112;-77
2020/12/07 01:01:48;;;;;;;23.77;7.82;;;-5.60;89.70;;;;;;5034436;28;20026;-76
2020/12/07 01:04:14;;;;;;;22.27;9.73;;;-5.60;89.70;;;;;;5016412;28;20026;-76
2020/12/07 01:06:40;;;;;;;18.10;9.05;;;-5.60;89.70;;;;;;5034415;28;20017;-76
2020/12/07 01:09:06;;;;;;;25.90;10.43;;;-5.60;89.80;;;;;;5034331;28;20105;-76
2020/12/07 01:11:31;;;;;;;20.67;9.13;;;-5.60;89.70;;;;;;5034393;28;20021;-76
2020/12/07 01:13:57;;;;;;;22.75;10.10;;;-5.60;89.90;;;;;;5034361;28;20022;-77
2020/12/07 01:16:24;;;;;;;21.65;9.68;;;-5.60;89.80;;;;;;5016417;28;20025;-77
2020/12/07 01:18:50;;;;;;;19.02;8.80;;;-5.60;89.90;;;;;;5034295;28;20021;-76
2020/12/07 01:21:17;;;;;;;21.20;8.90;;;-5.60;89.90;;;;;;5016059;28;20057;-76
2020/12/07 01:23:45;;;;;;;16.25;8.43;;;-5.60;89.80;;;;;;5033890;28;20124;-77
2020/12/07 01:26:14;;;;;;;24.75;10.35;;;-5.60;89.80;;;;;;5033547;28;20083;-77
2020/12/07 01:28:43;;;;;;;19.67;8.15;;;-5.60;89.70;;;;;;5033746;28;20029;-76
2020/12/07 01:31:09;;;;;;;21.67;9.45;;;-5.60;89.90;;;;;;5016054;28;20018;-77
2020/12/07 01:33:34;;;;;;;20.60;8.45;;;-5.60;89.90;;;;;;5033949;28;20017;-77
2020/12/07 01:36:00;;;;;;;19.00;8.43;;;-5.60;89.80;;;;;;5034007;28;20025;-76
2020/12/07 01:38:26;;;;;;;24.77;9.52;;;-5.60;89.80;;;;;;5033807;28;20026;-77
2020/12/07 01:40:52;;;;;;;23.58;9.50;;;-5.60;89.80;;;;;;5033652;28;20029;-77
2020/12/07 01:43:18;;;;;;;22.10;9.90;;;-5.70;89.80;;;;;;5016204;28;20033;-76
2020/12/07 01:45:45;;;;;;;20.88;9.93;;;-5.70;89.80;;;;;;5033855;28;20392;-76
2020/12/07 01:48:12;;;;;;;30.23;10.23;;;-5.70;89.80;;;;;;5015856;28;20484;-76
2020/12/07 01:50:40;;;;;;;17.95;8.80;;;-5.70;90.10;;;;;;5033790;28;20496;-76
2020/12/07 01:53:06;;;;;;;20.95;9.82;;;-5.80;89.60;;;;;;5033533;28;20021;-77
2020/12/07 01:55:32;;;;;;;18.95;8.55;;;-5.80;89.60;;;;;;5033636;28;20097;-76
2020/12/07 01:57:58;;;;;;;18.10;8.45;;;-5.80;89.50;;;;;;5033277;28;20021;-76
2020/12/07 02:00:24;;;;;;;23.38;10.02;;;-5.80;89.40;;;;;;5033285;28;20448;-76
2020/12/07 02:02:51;;;;;;;17.38;7.88;;;-5.90;89.40;;;;;;5015809;28;20032;-76
2020/12/07 02:05:20;;;;;;;24.05;10.05;;;-5.90;89.50;;;;;;5033610;28;20375;-77
2020/12/07 02:07:45;;;;;;;26.50;9.57;;;-5.90;89.40;;;;;;5033412;28;20022;-77
2020/12/07 02:10:11;;;;;;;24.05;9.65;;;-6.00;89.30;;;;;;5033363;28;20018;-76
2020/12/07 02:12:37;;;;;;;23.30;9.73;;;-6.00;89.50;;;;;;5033835;28;20091;-77
2020/12/07 02:15:03;;;;;;;27.15;7.97;;;-6.00;89.50;;;;;;5033489;28;20793;-78
2020/12/07 02:17:29;;;;;;;21.40;9.48;;;-6.10;89.40;;;;;;5033661;28;20047;-77
2020/12/07 02:19:54;;;;;;;24.30;9.68;;;-6.10;89.40;;;;;;5033118;28;20420;-77
2020/12/07 02:22:20;;;;;;;22.05;9.07;;;-6.10;89.50;;;;;;5032768;28;20079;-77
2020/12/07 02:24:46;;;;;;;22.10;9.35;;;-6.20;89.30;;;;;;5032380;28;20514;-76
2020/12/07 02:27:11;;;;;;;20.98;8.68;;;-6.20;89.30;;;;;;5032900;28;20073;-77
2020/12/07 02:29:37;;;;;;;22.25;8.23;;;-6.20;89.40;;;;;;5033113;28;20029;-76
2020/12/07 02:32:13;;;;;;;23.60;9.02;;;-6.30;89.20;;;;;;5033109;28;20389;-77
2020/12/07 02:34:40;;;;;;;29.45;10.20;;;-6.30;89.20;;;;;;5033629;28;20040;-76
2020/12/07 02:37:07;;;;;;;23.17;9.75;;;-6.30;89.30;;;;;;5033709;28;20040;-77
2020/12/07 02:39:33;;;;;;;25.38;9.85;;;-6.30;89.40;;;;;;5015237;28;20746;-78
2020/12/07 02:42:00;;;;;;;22.88;11.82;;;-6.30;89.30;;;;;;5032576;28;20025;-78
2020/12/07 02:44:26;;;;;;;21.67;9.57;;;-6.30;89.30;;;;;;5032853;28;20444;-77
2020/12/07 02:46:51;;;;;;;20.67;9.35;;;-6.30;89.40;;;;;;5032764;28;20076;-77
2020/12/07 02:49:17;;;;;;;18.98;8.05;;;-6.40;89.40;;;;;;5033027;28;20017;-77
2020/12/07 02:51:42;;;;;;;22.70;9.30;;;-6.40;89.30;;;;;;5032960;28;20079;-77
2020/12/07 02:54:08;;;;;;;20.45;8.88;;;-6.40;89.30;;;;;;5015561;28;20108;-77
2020/12/07 02:56:34;;;;;;;22.20;9.63;;;-6.40;89.30;;;;;;5033620;28;20538;-78
2020/12/07 02:58:59;;;;;;;21.42;9.20;;;-6.40;89.40;;;;;;5033248;28;20036;-78
2020/12/07 03:01:25;;;;;;;23.38;9.63;;;-6.40;89.30;;;;;;5033554;28;20029;-78
2020/12/07 03:03:51;;;;;;;18.98;9.48;;;-6.40;89.20;;;;;;5031981;28;20033;-78
2020/12/07 03:06:16;;;;;;;24.58;9.70;;;-6.40;89.40;;;;;;5033660;28;20098;-78
2020/12/07 03:08:42;;;;;;;24.65;9.60;;;-6.40;89.50;;;;;;5033141;28;20373;-78
2020/12/07 03:11:08;;;;;;;21.02;9.60;;;-6.40;89.50;;;;;;5032542;28;20025;-77
2020/12/07 03:13:33;;;;;;;22.67;9.32;;;-6.40;89.50;;;;;;5032457;28;20044;-77
2020/12/07 03:15:59;;;;;;;19.25;8.48;;;-6.50;89.40;;;;;;5032656;28;20048;-78
2020/12/07 03:18:25;;;;;;;23.63;9.85;;;-6.50;89.50;;;;;;5032698;28;20029;-78
2020/12/07 03:20:50;;;;;;;19.33;8.18;;;-6.50;89.30;;;;;;5032352;28;20034;-77
2020/12/07 03:23:16;;;;;;;17.45;8.90;;;-6.50;89.40;;;;;;5032139;28;20329;-78
2020/12/07 03:25:41;;;;;;;23.63;9.40;;;-6.40;89.50;;;;;;5032643;28;20088;-77
2020/12/07 03:28:07;;;;;;;20.80;9.30;;;-6.40;89.60;;;;;;5015178;28;20032;-77
2020/12/07 03:30:33;;;;;;;20.85;9.80;;;-6.50;89.50;;;;;;5015345;28;20425;-77
2020/12/07 03:32:58;;;;;;;18.33;8.13;;;-6.50;89.60;;;;;;5032576;28;20100;-77
2020/12/07 03:35:24;;;;;;;26.33;10.85;;;-6.40;89.50;;;;;;5032873;28;20033;-77
2020/12/07 03:37:50;;;;;;;21.88;10.65;;;-6.40;89.60;;;;;;5032777;28;20031;-78
2020/12/07 03:40:15;;;;;;;18.30;8.70;;;-6.40;89.60;;;;;;5032525;28;20505;-77
2020/12/07 03:42:41;;;;;;;20.25;9.30;;;-6.40;89.60;;;;;;5032733;28;20034;-77
2020/12/07 03:45:07;;;;;;;19.45;8.73;;;-6.40;89.60;;;;;;5032709;28;20029;-77
2020/12/07 03:47:33;;;;;;;20.83;8.63;;;-6.40;89.70;;;;;;5032730;28;20494;-77
2020/12/07 03:49:59;;;;;;;20.25;9.25;;;-6.40;89.60;;;;;;5032379;28;20029;-77
2020/12/07 03:52:25;;;;;;;16.15;7.60;;;-6.40;89.80;;;;;;5031820;28;20102;-77
2020/12/07 03:54:50;;;;;;;21.80;9.50;;;-6.40;89.70;;;;;;5033784;28;20029;-77
2020/12/07 03:57:16;;;;;;;20.17;8.73;;;-6.40;89.70;;;;;;5017218;28;20083;-77
2020/12/07 03:59:42;;;;;;;18.95;8.77;;;-6.40;89.60;;;;;;5034974;28;20034;-77
2020/12/07 04:02:07;;;;;;;23.52;9.55;;;-6.40;89.70;;;;;;5035680;28;20132;-77
2020/12/07 04:04:53;;;;;;;21.60;9.85;;;-6.40;89.70;;;;;;5035973;28;20078;-78
2020/12/07 04:07:18;;;;;;;25.05;9.27;;;-6.40;89.60;;;;;;5035470;28;20040;-78
2020/12/07 04:09:44;;;;;;;20.42;8.77;;;-6.40;89.60;;;;;;5035315;28;20467;-77
2020/12/07 04:12:10;;;;;;;18.70;8.93;;;-6.40;89.60;;;;;;5034824;28;20025;-78
2020/12/07 04:14:36;;;;;;;26.17;9.43;;;-6.40;89.40;;;;;;5034512;28;20133;-77
2020/12/07 04:17:01;;;;;;;21.15;8.63;;;-6.40;89.40;;;;;;5034953;28;20030;-77
2020/12/07 04:19:27;;;;;;;21.73;8.63;;;-6.50;89.50;;;;;;5035013;28;20029;-77
2020/12/07 04:21:53;;;;;;;18.20;8.48;;;-6.50;89.30;;;;;;5035727;28;20033;-78
2020/12/07 04:24:18;;;;;;;22.77;9.80;;;-6.50;89.20;;;;;;5017626;28;20057;-78
2020/12/07 04:26:44;;;;;;;21.83;9.00;;;-6.50;89.30;;;;;;5035542;28;20104;-78
2020/12/07 04:29:10;;;;;;;16.40;7.63;;;-6.50;89.30;;;;;;5035317;28;20025;-78
2020/12/07 04:31:35;;;;;;;24.15;9.65;;;-6.50;89.30;;;;;;5017417;28;20056;-78
2020/12/07 04:34:01;;;;;;;20.98;9.05;;;-6.50;89.30;;;;;;5035044;28;20029;-78
2020/12/07 04:36:27;;;;;;;19.67;8.20;;;-6.50;89.30;;;;;;5034525;28;20079;-78
2020/12/07 04:38:52;;;;;;;16.63;7.65;;;-6.50;89.90;;;;;;5034454;28;20576;-76
2020/12/07 04:41:18;;;;;;;15.65;7.55;;;-6.50;89.30;;;;;;5034351;28;20103;-77
2020/12/07 04:43:48;;;;;;;29.65;8.15;;;-6.60;89.20;;;;;;5034102;28;20475;-78
2020/12/07 04:46:14;;;;;;;21.35;8.95;;;-6.60;89.10;;;;;;5035614;28;20036;-78
2020/12/07 04:48:41;;;;;;;19.40;7.93;;;-6.60;89.20;;;;;;5034782;28;20029;-78
2020/12/07 04:51:09;;;;;;;19.50;8.82;;;-6.60;89.20;;;;;;5034719;28;20032;-78
2020/12/07 04:53:36;;;;;;;22.80;9.45;;;-6.60;89.20;;;;;;5035164;28;20384;-79
2020/12/07 04:56:02;;;;;;;19.90;9.30;;;-6.60;89.20;;;;;;5035054;28;20471;-78
2020/12/07 04:58:28;;;;;;;25.70;8.77;;;-6.60;89.30;;;;;;5034913;28;20152;-77
2020/12/07 05:00:54;;;;;;;24.90;8.70;;;-6.60;89.40;;;;;;5034749;28;20040;-77
2020/12/07 05:03:20;;;;;;;21.70;9.88;;;-6.60;89.30;;;;;;5034868;28;20044;-78
2020/12/07 05:05:50;;;;;;;14.07;8.13;;;-6.60;89.40;;;;;;5034434;28;20026;-78
2020/12/07 05:08:16;;;;;;;23.00;8.70;;;-6.60;89.30;;;;;;5016717;28;20037;-79
2020/12/07 05:10:43;;;;;;;17.70;8.98;;;-6.60;89.20;;;;;;5034174;28;20387;-78
2020/12/07 05:15:40;;;;;;;25.13;9.68;;;-6.70;89.20;;;;;;5034628;28;20033;-78
2020/12/07 05:18:06;;;;;;;17.58;8.40;;;-6.60;89.30;;;;;;5016423;28;20099;-78
2020/12/07 05:20:31;;;;;;;17.45;7.55;;;-6.70;89.20;;;;;;5016613;28;20037;-78
2020/12/07 05:22:59;;;;;;;19.60;8.40;;;-6.70;89.20;;;;;;5034391;28;20105;-79
2020/12/07 05:25:26;;;;;;;21.77;9.27;;;-6.70;89.20;;;;;;5034221;28;20050;-79
2020/12/07 05:27:53;;;;;;;21.40;9.27;;;-6.70;89.20;;;;;;5034721;28;20029;-78
2020/12/07 05:30:23;;;;;;;15.55;7.63;;;-6.70;89.30;;;;;;5034028;28;20072;-78
2020/12/07 05:32:49;;;;;;;19.60;9.80;;;-6.70;89.20;;;;;;5033985;28;20044;-79
2020/12/07 05:35:17;;;;;;;17.73;7.57;;;-6.70;89.20;;;;;;5016361;28;20700;-78
2020/12/07 05:37:43;;;;;;;18.48;8.48;;;-6.70;89.30;;;;;;5033741;28;20025;-79
2020/12/07 05:40:12;;;;;;;15.38;7.20;;;-6.70;89.20;;;;;;5033619;28;20036;-78
2020/12/07 05:42:38;;;;;;;19.20;9.15;;;-6.70;89.30;;;;;;5033594;28;20029;-78
2020/12/07 05:45:05;;;;;;;22.48;9.65;;;-6.70;89.30;;;;;;5033069;28;20748;-78
2020/12/07 05:47:33;;;;;;;22.08;10.10;;;-6.70;89.50;;;;;;5015554;28;20070;-78
2020/12/07 05:50:00;;;;;;;25.17;9.95;;;-6.70;89.60;;;;;;5032892;28;20060;-77
2020/12/07 05:52:40;;;;;;;20.35;9.27;;;-6.70;89.60;;;;;;5015183;28;20502;-79
2020/12/07 05:55:07;;;;;;;20.92;7.90;;;-6.60;89.70;;;;;;5032924;28;20064;-78
2020/12/07 05:57:45;;;;;;;19.25;9.18;;;-6.60;90.00;;;;;;5032783;28;20025;-78
2020/12/07 06:00:18;;;;;;;19.60;8.73;;;-6.40;90.20;;;;;;5033226;28;20037;-79
2020/12/07 06:02:47;;;;;;;20.02;8.52;;;-6.40;89.80;;;;;;5032330;28;20057;-78
2020/12/07 06:05:15;;;;;;;17.83;7.93;;;-6.40;89.40;;;;;;5014882;28;20041;-78
2020/12/07 06:07:45;;;;;;;15.05;7.72;;;-6.30;90.00;;;;;;5014362;28;20033;-78
2020/12/07 06:10:15;;;;;;;23.52;9.57;;;-6.10;90.20;;;;;;5031747;28;20021;-78
2020/12/07 06:12:46;;;;;;;18.45;8.40;;;-5.90;89.90;;;;;;5032286;28;20021;-78
2020/12/07 06:15:12;;;;;;;37.22;11.43;;;-5.90;90.00;;;;;;5032415;28;20025;-78
2020/12/07 06:17:38;;;;;;;19.73;8.80;;;-5.70;90.00;;;;;;5031288;28;20048;-78
2020/12/07 06:20:04;;;;;;;17.67;8.50;;;-5.60;90.00;;;;;;5032076;28;20040;-80
2020/12/07 06:22:32;;;;;;;17.80;8.27;;;-5.60;89.20;;;;;;5032484;28;20037;-79
2020/12/07 06:24:58;;;;;;;19.42;8.18;;;-5.40;89.60;;;;;;5031974;28;20057;-79
2020/12/07 06:27:25;;;;;;;15.07;7.88;;;-5.40;89.10;;;;;;5031942;28;20099;-80
2020/12/07 06:30:01;;;;;;;16.90;7.53;;;-5.30;88.90;;;;;;5032343;28;20032;-79
2020/12/07 06:32:51;;;;;;;16.73;8.85;;;-5.20;88.90;;;;;;5032152;28;20026;-79
2020/12/07 06:35:21;;;;;;;21.02;9.32;;;-5.00;89.60;;;;;;5034451;28;20030;-79
2020/12/07 06:37:49;;;;;;;20.77;7.65;;;-4.90;88.90;;;;;;5014470;28;20132;-78
2020/12/07 06:40:18;;;;;;;22.00;9.32;;;-4.90;88.50;;;;;;5032189;28;20487;-80
2020/12/07 06:42:45;;;;;;;20.55;9.30;;;-4.70;88.70;;;;;;5031943;28;20037;-80
2020/12/07 06:45:21;;;;;;;22.27;9.55;;;-4.70;87.60;;;;;;5032491;28;20478;-78
2020/12/07 06:47:49;;;;;;;19.95;10.10;;;-4.50;88.20;;;;;;5032451;28;20029;-80
2020/12/07 06:50:18;;;;;;;18.23;7.78;;;-4.50;87.00;;;;;;5031873;28;20108;-78
2020/12/07 06:52:46;;;;;;;15.55;7.20;;;-4.50;86.60;;;;;;5014080;28;20055;-80
2020/12/07 06:55:14;;;;;;;19.38;8.45;;;-4.50;86.00;;;;;;5031561;28;20467;-78
2020/12/07 06:57:47;;;;;;;22.10;8.32;;;-4.50;86.40;;;;;;5031992;28;20439;-79
2020/12/07 07:00:19;;;;;;;17.90;8.45;;;-4.40;86.30;;;;;;5031704;28;20033;-78
2020/12/07 07:02:49;;;;;;;13.73;7.05;;;-4.30;86.20;;;;;;5031798;28;20048;-78
2020/12/07 07:05:19;;;;;;;19.83;8.85;;;-4.30;85.20;;;;;;5031693;28;20108;-78
2020/12/07 07:07:45;;;;;;;18.92;8.32;;;-4.30;85.20;;;;;;5031672;28;20353;-78
2020/12/07 07:10:12;;;;;;;17.92;7.50;;;-4.40;84.80;;;;;;5031237;28;20033;-76
2020/12/07 07:12:39;;;;;;;17.63;8.18;;;-4.30;85.60;;;;;;5031501;28;20361;-78
2020/12/07 07:15:07;;;;;;;13.60;7.45;;;-4.20;85.50;;;;;;5031780;28;20026;-78
2020/12/07 07:17:35;;;;;;;16.55;6.97;;;-4.20;85.00;;;;;;5013808;28;20025;-77
2020/12/07 07:20:04;;;;;;;16.10;8.23;;;-4.20;84.90;;;;;;5031240;28;20072;-76
2020/12/07 07:22:30;;;;;;;16.45;6.65;;;-4.10;85.00;;;;;;5013640;28;20026;-77
2020/12/07 07:30:25;;;;;;;18.45;9.07;;;-4.10;83.50;;;;;;5035780;28;20489;-77
2020/12/07 07:32:53;;;;;;;25.58;11.60;;;-4.10;83.80;;;;;;5035177;28;20042;-77
2020/12/07 07:35:22;;;;;;;20.42;9.45;;;-4.10;84.30;;;;;;5034991;28;20036;-77
2020/12/07 07:37:49;;;;;;;16.63;8.05;;;-4.00;84.80;;;;;;5035196;28;20033;-77
2020/12/07 07:40:22;;;;;;;16.20;7.28;;;-3.90;84.10;;;;;;5034513;28;20033;-77
2020/12/07 07:42:52;;;;;;;15.00;7.32;;;-3.90;83.80;;;;;;5017757;28;20030;-75
2020/12/07 07:45:23;;;;;;;15.50;7.55;;;-3.90;83.40;;;;;;5034711;28;20063;-75
2020/12/07 07:47:59;;;;;;;15.57;8.55;;;-3.80;84.40;;;;;;5034790;28;20083;-74
2020/12/07 07:50:54;;;;;;;13.65;7.57;;;-3.70;84.30;;;;;;5016655;28;20113;-76
2020/12/07 08:17:53;;;;;;;19.98;8.15;;;-3.50;82.30;;;;;;5034927;28;20040;-75
2020/12/07 08:20:22;;;;;;;15.57;6.82;;;-3.40;81.40;;;;;;5034450;28;20029;-75
2020/12/07 08:22:56;;;;;;;21.38;8.40;;;-3.40;81.00;;;;;;5034310;28;20105;-75
2020/12/07 08:25:40;;;;;;;22.65;9.75;;;-3.40;81.20;;;;;;5016487;28;20057;-74
2020/12/07 08:28:21;;;;;;;20.00;9.40;;;-3.40;80.50;;;;;;5016206;28;20065;-74
2020/12/07 08:31:18;;;;;;;19.05;8.98;;;-3.30;80.70;;;;;;5016102;28;20033;-74
2020/12/07 08:33:54;;;;;;;28.08;10.43;;;-3.20;80.50;;;;;;5014127;28;20037;-74
2020/12/07 08:36:20;;;;;;;17.45;7.68;;;-3.20;80.30;;;;;;5015660;28;20472;-73
2020/12/07 08:38:46;;;;;;;17.48;7.80;;;-3.10;79.80;;;;;;5032986;28;20033;-74
2020/12/07 08:41:17;;;;;;;21.52;8.82;;;-3.00;80.30;;;;;;5033143;28;20053;-74
2020/12/07 08:43:54;;;;;;;15.52;8.18;;;-3.00;79.20;;;;;;5033609;28;20101;-74
2020/12/07 08:46:26;;;;;;;25.25;8.90;;;-2.90;80.00;;;;;;5033835;28;20501;-75
2020/12/07 08:48:52;;;;;;;15.80;7.68;;;-2.80;79.70;;;;;;5015983;28;20025;-74
2020/12/07 08:51:26;;;;;;;19.48;7.60;;;-2.70;79.20;;;;;;5015508;28;20026;-74
2020/12/07 08:53:52;;;;;;;25.80;10.07;;;-2.70;79.30;;;;;;5015350;28;20068;-74
2020/12/07 08:56:18;;;;;;;16.95;7.63;;;-2.50;79.70;;;;;;5033499;28;20029;-75
2020/12/07 08:58:44;;;;;;;21.35;7.78;;;-2.50;78.80;;;;;;5033282;28;20340;-75
2020/12/07 09:01:11;;;;;;;17.40;8.15;;;-2.40;78.80;;;;;;5015337;28;20053;-75
2020/12/07 09:03:39;;;;;;;14.65;7.20;;;-2.50;77.60;;;;;;5015325;28;20033;-75
2020/12/07 09:06:06;;;;;;;19.17;8.50;;;-2.60;77.10;;;;;;5015227;28;20426;-75
2020/12/07 09:08:32;;;;;;;16.65;7.38;;;-2.70;77.00;;;;;;5032966;28;20048;-75
2020/12/07 09:10:58;;;;;;;24.33;11.60;;;-2.60;77.60;;;;;;5014933;28;20380;-74
2020/12/07 09:13:24;;;;;;;17.35;7.95;;;-2.60;77.90;;;;;;5033149;28;20102;-74
2020/12/07 09:15:53;;;;;;;17.92;7.75;;;-2.60;77.10;;;;;;5033055;28;20029;-74
2020/12/07 09:18:20;;;;;;;15.55;7.63;;;-2.70;76.80;;;;;;5033141;28;20033;-75
2020/12/07 09:20:46;;;;;;;14.85;8.35;;;-2.70;77.10;;;;;;5033060;28;20420;-75
2020/12/07 09:23:12;;;;;;;14.00;7.03;;;-2.70;77.00;;;;;;5015079;28;20041;-74
2020/12/07 09:25:37;;;;;;;19.52;7.40;;;-2.60;77.30;;;;;;5033030;28;20133;-75
2020/12/07 09:28:04;;;;;;;17.33;8.10;;;-2.60;76.80;;;;;;5032711;28;20225;-74
2020/12/07 09:30:30;;;;;;;25.65;10.25;;;-2.60;77.10;;;;;;5032617;28;20031;-74
2020/12/07 09:32:55;;;;;;;13.90;7.03;;;-2.40;77.20;;;;;;5032703;28;20339;-73
2020/12/07 09:35:21;;;;;;;15.45;8.18;;;-2.50;76.00;;;;;;5033290;28;20034;-74
2020/12/07 09:37:47;;;;;;;30.50;10.10;;;-2.50;76.10;;;;;;5032951;28;20105;-73
2020/12/07 09:40:13;;;;;;;24.67;9.75;;;-2.50;76.50;;;;;;5014883;28;20033;-75
2020/12/07 09:42:39;;;;;;;14.82;7.22;;;-2.40;77.20;;;;;;5014457;28;20482;-73
2020/12/07 09:45:09;;;;;;;17.52;7.85;;;-2.20;77.00;;;;;;5014294;28;20412;-74
2020/12/07 09:47:35;;;;;;;15.23;6.95;;;-2.30;75.90;;;;;;5032535;28;20026;-74
2020/12/07 09:50:03;;;;;;;13.50;7.05;;;-2.30;75.70;;;;;;5014606;28;20472;-75
2020/12/07 09:52:29;;;;;;;17.02;8.48;;;-2.20;76.20;;;;;;5032333;28;20024;-74
2020/12/07 09:54:54;;;;;;;18.02;8.18;;;-2.10;76.40;;;;;;5032475;28;20100;-74
2020/12/07 09:57:20;;;;;;;17.40;8.00;;;-2.00;76.40;;;;;;5032170;28;20060;-73
2020/12/07 09:59:48;;;;;;;15.15;6.85;;;-2.00;75.50;;;;;;5031964;28;20025;-74
2020/12/07 10:02:14;;;;;;;15.75;7.38;;;-2.10;74.80;;;;;;5032065;28;20109;-74
2020/12/07 10:04:41;;;;;;;19.58;9.38;;;-2.20;74.50;;;;;;5031797;28;20446;-73
2020/12/07 10:07:06;;;;;;;20.27;9.77;;;-2.20;75.00;;;;;;5031924;28;20022;-74
2020/12/07 10:09:32;;;;;;;19.65;8.48;;;-2.20;76.00;;;;;;5032276;28;20109;-74
2020/12/07 10:11:58;;;;;;;23.85;11.07;;;-2.10;76.00;;;;;;5031757;28;20029;-73
2020/12/07 10:14:23;;;;;;;22.92;10.75;;;-2.10;75.20;;;;;;5032048;28;20057;-73
2020/12/07 10:16:49;;;;;;;20.98;9.70;;;-2.10;74.60;;;;;;5013806;28;20509;-74
2020/12/07 10:19:15;;;;;;;27.63;11.07;;;-2.20;74.30;;;;;;5014106;28;20026;-74
2020/12/07 10:21:41;;;;;;;22.90;9.75;;;-2.30;74.80;;;;;;5031883;28;20030;-73
2020/12/07 10:24:07;;;;;;;16.58;8.95;;;-2.20;75.30;;;;;;5031719;28;20450;-74
2020/12/07 10:26:33;;;;;;;24.35;8.90;;;-2.20;74.80;;;;;;5031506;28;20029;-74
2020/12/07 10:29:00;;;;;;;18.75;8.25;;;-2.30;75.20;;;;;;5031396;28;20052;-75
2020/12/07 10:31:26;;;;;;;22.48;9.45;;;-2.30;74.80;;;;;;5031210;28;20030;-75
2020/12/07 10:33:52;;;;;;;20.90;8.63;;;-2.20;75.50;;;;;;5031592;28;20040;-74
2020/12/07 10:36:20;;;;;;;17.35;8.07;;;-2.10;75.40;;;;;;5031393;28;20044;-74
2020/12/07 10:38:46;;;;;;;15.65;7.60;;;-2.20;74.30;;;;;;5030886;28;20420;-74
2020/12/07 10:41:13;;;;;;;19.70;8.35;;;-2.20;74.40;;;;;;5030524;28;20025;-75
2020/12/07 10:43:40;;;;;;;22.25;8.90;;;-2.40;74.00;;;;;;5030608;28;20506;-75
2020/12/07 10:46:06;;;;;;;21.75;8.95;;;-2.40;74.00;;;;;;5030641;28;20057;-76
2020/12/07 10:48:33;;;;;;;29.00;11.48;;;-2.50;74.00;;;;;;5030848;28;20039;-75
2020/12/07 10:50:58;;;;;;;19.40;8.50;;;-2.50;74.60;;;;;;5031106;28;20028;-74
2020/12/07 10:53:24;;;;;;;27.02;10.07;;;-2.50;74.90;;;;;;5031198;28;20025;-75
2020/12/07 10:55:50;;;;;;;20.75;9.02;;;-2.40;74.90;;;;;;5013099;28;20030;-74
2020/12/07 10:58:16;;;;;;;22.00;10.05;;;-2.40;75.10;;;;;;5031007;28;20036;-74
2020/12/07 11:00:42;;;;;;;25.52;10.65;;;-2.40;75.10;;;;;;5031170;28;20030;-74
2020/12/07 11:03:08;;;;;;;21.25;9.32;;;-2.40;74.50;;;;;;5012792;28;20083;-74
2020/12/07 11:05:34;;;;;;;18.02;9.30;;;-2.40;74.60;;;;;;5030978;28;20060;-79
2020/12/07 11:08:01;;;;;;;21.20;9.07;;;-2.40;74.40;;;;;;5031016;28;20065;-77
2020/12/07 11:10:26;;;;;;;24.65;9.60;;;-2.50;74.40;;;;;;5031046;28;20086;-78
2020/12/07 11:13:04;;;;;;;16.98;8.18;;;-2.50;74.70;;;;;;5013598;28;20025;-76
2020/12/07 11:15:29;;;;;;;21.80;9.73;;;-2.50;74.80;;;;;;5013597;28;20021;-78
2020/12/07 11:17:55;;;;;;;18.45;9.40;;;-2.60;74.70;;;;;;5013197;28;20386;-74
2020/12/07 11:20:21;;;;;;;20.98;9.73;;;-2.60;75.30;;;;;;5013116;28;20773;-74
2020/12/07 11:22:46;;;;;;;20.45;8.45;;;-2.60;75.00;;;;;;5030682;28;20038;-74
2020/12/07 11:25:12;;;;;;;21.70;8.27;;;-2.60;74.50;;;;;;5012672;28;20487;-75
2020/12/07 11:27:38;;;;;;;19.02;8.32;;;-2.70;74.40;;;;;;5012672;28;20348;-74
2020/12/07 11:30:04;;;;;;;16.30;9.27;;;-2.70;74.50;;;;;;5030830;28;20033;-74
2020/12/07 11:32:30;;;;;;;21.83;8.93;;;-2.70;75.00;;;;;;5013335;28;20026;-75
2020/12/07 11:34:56;;;;;;;23.15;11.18;;;-2.60;75.50;;;;;;5030909;28;20045;-74
2020/12/07 11:37:22;;;;;;;22.20;11.02;;;-2.50;75.20;;;;;;5029960;28;20119;-74
2020/12/07 11:42:52;;;;;;;23.02;10.57;;;-2.50;75.40;;;;;;5017131;28;20051;-75
2020/12/07 11:45:17;;;;;;;22.15;9.75;;;-2.50;75.80;;;;;;5030571;28;20022;-75
2020/12/07 11:47:43;;;;;;;23.90;10.25;;;-2.50;74.90;;;;;;5030704;28;20117;-74
2020/12/07 11:50:09;;;;;;;23.98;11.05;;;-2.60;74.70;;;;;;5030509;28;20014;-74
2020/12/07 11:52:34;;;;;;;27.02;11.82;;;-2.60;75.00;;;;;;5030672;28;20017;-74
2020/12/07 11:55:00;;;;;;;24.20;11.80;;;-2.60;75.30;;;;;;5013020;28;20890;-75
2020/12/07 11:57:26;;;;;;;15.60;7.28;;;-2.60;75.30;;;;;;5030836;28;20025;-74
2020/12/07 11:59:51;;;;;;;30.42;11.98;;;-2.70;74.70;;;;;;5030535;28;20053;-74
2020/12/07 12:02:17;;;;;;;27.20;11.65;;;-2.70;75.10;;;;;;5030906;28;20053;-74
2020/12/07 12:04:43;;;;;;;22.42;9.18;;;-2.70;75.40;;;;;;5030658;28;20056;-74
2020/12/07 12:07:09;;;;;;;28.80;11.23;;;-2.70;75.80;;;;;;5012904;28;20022;-73
2020/12/07 12:09:37;;;;;;;24.95;10.82;;;-2.70;75.90;;;;;;5030742;28;20022;-75
2020/12/07 12:12:04;;;;;;;22.75;9.80;;;-2.60;76.20;;;;;;5012777;28;20076;-75
2020/12/07 12:14:30;;;;;;;22.17;9.57;;;-2.60;75.80;;;;;;5031106;28;20027;-75
2020/12/07 12:16:56;;;;;;;23.55;9.20;;;-2.60;75.70;;;;;;5016361;28;20021;-74
2020/12/07 12:19:22;;;;;;;27.70;11.82;;;-2.70;75.50;;;;;;5033684;28;20021;-74
2020/12/07 12:21:48;;;;;;;26.08;10.68;;;-2.70;75.70;;;;;;5016334;28;20036;-74
2020/12/07 12:24:14;;;;;;;37.83;15.02;;;-2.70;76.00;;;;;;5033600;28;20547;-75
2020/12/07 12:26:40;;;;;;;26.75;11.63;;;-2.70;75.90;;;;;;5033749;28;20483;-74
2020/12/07 12:29:07;;;;;;;26.98;12.27;;;-2.70;75.90;;;;;;5033740;28;20500;-74
2020/12/07 12:31:33;;;;;;;36.08;14.77;;;-2.80;76.00;;;;;;5015553;28;20108;-74
2020/12/07 12:33:59;;;;;;;32.13;13.10;;;-2.80;76.30;;;;;;5033374;28;20032;-74
2020/12/07 12:36:27;;;;;;;17.77;9.43;;;-2.70;76.60;;;;;;5033386;28;20026;-73
2020/12/07 12:38:54;;;;;;;21.80;9.52;;;-2.70;76.50;;;;;;5033436;28;20029;-74
2020/12/07 12:41:20;;;;;;;23.77;9.07;;;-2.70;76.30;;;;;;5015723;28;20388;-74
2020/12/07 12:43:46;;;;;;;26.92;11.35;;;-2.80;76.20;;;;;;5033510;28;20072;-74
2020/12/07 12:46:13;;;;;;;20.02;9.43;;;-2.80;76.50;;;;;;5033172;28;20081;-74
2020/12/07 12:48:38;;;;;;;25.83;9.68;;;-2.80;76.60;;;;;;5033393;28;20147;-74
2020/12/07 12:51:07;;;;;;;27.33;9.57;;;-2.80;76.40;;;;;;5015293;28;20112;-74
2020/12/07 12:53:33;;;;;;;22.55;9.45;;;-2.90;76.40;;;;;;5016091;28;20372;-74
2020/12/07 12:55:58;;;;;;;24.52;11.05;;;-2.90;76.40;;;;;;5033349;28;20026;-74
2020/12/07 12:58:25;;;;;;;21.70;8.93;;;-3.00;76.50;;;;;;5033315;28;20026;-73
2020/12/07 13:00:51;;;;;;;19.75;7.50;;;-3.00;76.70;;;;;;5033239;28;20025;-73
2020/12/07 13:03:17;;;;;;;25.48;10.60;;;-3.00;76.80;;;;;;5032868;28;20021;-73
2020/12/07 13:05:43;;;;;;;22.30;9.70;;;-3.00;76.90;;;;;;5033128;28;20052;-74
2020/12/07 13:08:09;;;;;;;25.83;9.73;;;-3.00;77.10;;;;;;5033259;28;20089;-73
2020/12/07 13:10:35;;;;;;;28.85;11.55;;;-3.00;76.90;;;;;;5032705;28;20483;-74